AFR54JP EFKT-LFPG
Flight info
| Callsign | AFR54JP |
|---|---|
| Flight time | N/A |
| Altitude | 36000 |
| Route | AMULU DCT NEBET DCT ABALA DCT BEGDO DCT NITMU DCT ETIPU DCT DIBVA DCT INREX DCT LULIL DCT VIPPA DCT KUGAL DCT BUB DCT NILEM/N0433F370 DCT MOPIL |
| Aircraft | A320/M-SDE3FGHIRWY/LB1 |
Departure
| Time | 2026-04-17 10:59 |
|---|---|
| Airport | Kittilä International Airport (EFKT) |
Arrival
| Time | N/A |
|---|---|
| Airport | Charles de Gaulle International Airport (LFPG) |
| Time | Latitude | Longitude | Altitude | Speed | Heading |
|---|---|---|---|---|---|
| 2026-04-17 10:27 | 67.69677 | 24.85619 | 642 ft | 0 kts | 82° |
| 2026-04-17 10:44 | 67.69677 | 24.85618 | 642 ft | 0 kts | 82° |
| 2026-04-17 10:52 | 67.69677 | 24.85608 | 642 ft | 3 kts | 82° |
| 2026-04-17 10:52 | 67.69674 | 24.85538 | 644 ft | 4 kts | 91° |
| 2026-04-17 10:52 | 67.69677 | 24.85469 | 641 ft | 4 kts | 115° |
| 2026-04-17 10:53 | 67.69691 | 24.85428 | 641 ft | 2 kts | 168° |
| 2026-04-17 10:53 | 67.69697 | 24.85425 | 641 ft | 0 kts | 168° |
| 2026-04-17 10:55 | 67.69682 | 24.85433 | 643 ft | 6 kts | 168° |
| 2026-04-17 10:55 | 67.69628 | 24.85461 | 641 ft | 9 kts | 169° |
| 2026-04-17 10:55 | 67.69548 | 24.85476 | 643 ft | 12 kts | 213° |
| 2026-04-17 10:55 | 67.69519 | 24.85254 | 643 ft | 14 kts | 259° |
| 2026-04-17 10:56 | 67.69463 | 24.85109 | 643 ft | 12 kts | 173° |
| 2026-04-17 10:56 | 67.69377 | 24.85166 | 645 ft | 16 kts | 165° |
| 2026-04-17 10:56 | 67.69264 | 24.85248 | 646 ft | 17 kts | 165° |
| 2026-04-17 10:56 | 67.69138 | 24.85340 | 642 ft | 20 kts | 164° |
| 2026-04-17 10:57 | 67.69053 | 24.85423 | 642 ft | 9 kts | 201° |
| 2026-04-17 10:57 | 67.69063 | 24.85363 | 642 ft | 3 kts | 346° |
| 2026-04-17 10:57 | 67.69073 | 24.85357 | 643 ft | 0 kts | 346° |
| 2026-04-17 10:58 | 67.69100 | 24.85340 | 643 ft | 23 kts | 346° |
| 2026-04-17 10:58 | 67.69531 | 24.85060 | 643 ft | 102 kts | 346° |
| 2026-04-17 10:59 | 67.70447 | 24.84459 | 668 ft | 161 kts | 345° |
| 2026-04-17 10:59 | 67.71538 | 24.83727 | 1286 ft | 165 kts | 348° |
| 2026-04-17 10:59 | 67.72681 | 24.82977 | 2043 ft | 174 kts | 343° |
| 2026-04-17 10:59 | 67.73763 | 24.81243 | 2543 ft | 195 kts | 312° |
| 2026-04-17 11:00 | 67.74204 | 24.77659 | 2751 ft | 225 kts | 265° |
| 2026-04-17 11:00 | 67.73563 | 24.73747 | 3108 ft | 247 kts | 229° |
| 2026-04-17 11:00 | 67.72290 | 24.70716 | 3778 ft | 253 kts | 217° |
| 2026-04-17 11:00 | 67.70827 | 24.68055 | 4532 ft | 258 kts | 214° |
| 2026-04-17 11:01 | 67.69296 | 24.65506 | 5303 ft | 263 kts | 207° |
| 2026-04-17 11:01 | 67.67573 | 24.63800 | 6057 ft | 267 kts | 199° |
| 2026-04-17 11:01 | 67.65802 | 24.62219 | 6788 ft | 271 kts | 199° |
| 2026-04-17 11:01 | 67.63996 | 24.60612 | 7505 ft | 275 kts | 200° |
| 2026-04-17 11:02 | 67.62172 | 24.58989 | 8230 ft | 279 kts | 199° |
| 2026-04-17 11:02 | 67.60313 | 24.57343 | 8945 ft | 283 kts | 200° |
| 2026-04-17 11:02 | 67.58436 | 24.55676 | 9672 ft | 286 kts | 200° |
| 2026-04-17 11:02 | 67.56540 | 24.53998 | 10363 ft | 290 kts | 200° |
| 2026-04-17 11:03 | 67.54612 | 24.52298 | 10700 ft | 307 kts | 200° |
| 2026-04-17 11:03 | 67.52510 | 24.50443 | 10858 ft | 330 kts | 200° |
| 2026-04-17 11:03 | 67.50325 | 24.48121 | 11081 ft | 346 kts | 213° |
| 2026-04-17 11:03 | 67.48463 | 24.44134 | 11624 ft | 349 kts | 227° |
| 2026-04-17 11:04 | 67.46718 | 24.39675 | 12249 ft | 353 kts | 227° |
| 2026-04-17 11:04 | 67.44960 | 24.35157 | 12888 ft | 357 kts | 227° |
| 2026-04-17 11:04 | 67.43185 | 24.30570 | 13520 ft | 361 kts | 228° |
| 2026-04-17 11:04 | 67.41392 | 24.25946 | 14153 ft | 364 kts | 228° |
| 2026-04-17 11:05 | 67.39577 | 24.21281 | 14692 ft | 368 kts | 228° |
| 2026-04-17 11:05 | 67.37742 | 24.16594 | 15210 ft | 372 kts | 228° |
| 2026-04-17 11:05 | 67.35915 | 24.11943 | 15742 ft | 375 kts | 228° |
| 2026-04-17 11:05 | 67.34043 | 24.07186 | 16286 ft | 378 kts | 228° |
| 2026-04-17 11:06 | 67.32150 | 24.02383 | 16810 ft | 382 kts | 228° |